Time;durP1;ratioP1;P1;durP2;ratioP2;P2;SDS_P1;SDS_P2;PMS_P1;PMS_P2;Temp;Humidity;BMP_temperature;BMP_pressure;BME280_temperature;BME280_humidity;BME280_pressure;Samples;Min_cycle;Max_cycle;Signal;HPM_P1;HPM_P2
2022/06/13 00:01:03;;;;;;;;;;;14.40;56.40;;;;;;4124788;28;20331;-43
2022/06/13 00:03:05;;;;;;;;;;;14.40;56.50;;;;;;4128402;28;19935;-43
2022/06/13 00:05:07;;;;;;;;;;;14.40;56.50;;;;;;4121234;28;19936;-43
2022/06/13 00:07:09;;;;;;;;;;;14.40;56.70;;;;;;4103665;28;19991;-47
2022/06/13 00:09:11;;;;;;;;;;;14.40;56.50;;;;;;4110287;28;19922;-42
2022/06/13 00:11:14;;;;;;;;;;;14.40;56.40;;;;;;4122317;28;19999;-45
2022/06/13 00:13:16;;;;;;;;;;;14.40;56.50;;;;;;4100726;28;20423;-44
2022/06/13 00:15:17;;;;;;;;;;;14.40;57.30;;;;;;4128930;28;20458;-42
2022/06/13 00:17:19;;;;;;;;;;;14.40;57.40;;;;;;4119758;28;19946;-43
2022/06/13 00:19:21;;;;;;;;;;;14.40;57.60;;;;;;4118153;28;19937;-42
2022/06/13 00:21:29;;;;;;;;;;;14.40;57.50;;;;;;4126216;28;19936;-46
2022/06/13 00:23:31;;;;;;;;;;;14.40;57.80;;;;;;4125091;28;19989;-45
2022/06/13 00:25:33;;;;;;;;;;;14.40;57.60;;;;;;4113844;28;20079;-44
2022/06/13 00:27:35;;;;;;;;;;;14.40;57.60;;;;;;4118000;28;19947;-44
2022/06/13 00:29:41;;;;;;;;;;;14.40;57.70;;;;;;4123008;28;19929;-45
2022/06/13 00:31:43;;;;;;;;;;;14.40;57.80;;;;;;4105326;28;21217;-42
2022/06/13 00:33:45;;;;;;;;;;;14.40;57.70;;;;;;4113371;28;20446;-44
2022/06/13 00:35:46;;;;;;;;;;;14.50;58.10;;;;;;4119162;28;20066;-44
2022/06/13 00:37:48;;;;;;;;;;;14.50;58.10;;;;;;4105637;28;20024;-43
2022/06/13 00:39:50;;;;;;;;;;;14.50;58.10;;;;;;4114689;28;20407;-47
2022/06/13 00:41:51;;;;;;;;;;;14.50;58.00;;;;;;4117750;28;20071;-41
2022/06/13 00:43:53;;;;;;;;;;;14.50;58.10;;;;;;4124492;28;20233;-47
2022/06/13 00:45:55;;;;;;;;;;;14.50;58.00;;;;;;4116130;28;19977;-43
2022/06/13 00:47:57;;;;;;;;;;;14.50;58.30;;;;;;4111983;28;19935;-44
2022/06/13 00:49:59;;;;;;;;;;;14.50;58.40;;;;;;4121944;28;19924;-42
2022/06/13 00:52:12;;;;;;;;;;;14.50;58.50;;;;;;4116591;28;20624;-43
2022/06/13 00:54:16;;;;;;;;;;;14.50;58.70;;;;;;4100877;28;20715;-43
2022/06/13 00:59:32;;;;;;;;;;;14.50;59.20;;;;;;4174887;28;20004;-43
2022/06/13 01:01:35;;;;;;;;;;;14.50;59.50;;;;;;4165632;28;19958;-44
2022/06/13 01:03:41;;;;;;;;;;;14.90;58.70;;;;;;4180452;22;20229;-43
2022/06/13 01:05:45;;;;;;;;;;;15.50;57.40;;;;;;4143432;28;19947;-44
2022/06/13 01:07:56;;;;;;;;;;;16.20;55.80;;;;;;4126203;28;20025;-50
2022/06/13 01:12:54;;;;;;;;;;;17.40;53.40;;;;;;4137460;28;19924;-46
2022/06/13 01:15:13;;;;;;;;;;;18.10;52.00;;;;;;4118751;28;19932;-43
2022/06/13 01:17:24;;;;;;;;;;;18.50;51.30;;;;;;4113609;28;19936;-43
2022/06/13 01:19:36;;;;;;;;;;;19.00;50.50;;;;;;4114757;28;19936;-44
2022/06/13 01:21:52;;;;;;;;;;;19.40;50.00;;;;;;4118162;28;19932;-44
2022/06/13 01:23:54;;;;;;;;;;;19.70;49.60;;;;;;4114879;28;20300;-48
2022/06/13 01:26:14;;;;;;;;;;;20.00;48.90;;;;;;4116282;28;20006;-48
2022/06/13 01:28:34;;;;;;;;;;;20.30;48.20;;;;;;4113969;28;19935;-43
2022/06/13 01:30:35;;;;;;;;;;;20.60;47.60;;;;;;4116978;28;20834;-42
2022/06/13 01:32:40;;;;;;;;;;;20.90;47.30;;;;;;4117121;28;19955;-42
2022/06/13 01:34:57;;;;;;;;;;;21.10;46.80;;;;;;4119160;28;19928;-41
2022/06/13 01:37:23;;;;;;;;;;;21.30;46.40;;;;;;4116920;28;20408;-51
2022/06/13 01:39:27;;;;;;;;;;;21.60;46.10;;;;;;4119387;28;20336;-47
2022/06/13 01:41:29;;;;;;;;;;;21.80;45.70;;;;;;4114909;28;19928;-50
2022/06/13 01:43:31;;;;;;;;;;;22.10;45.50;;;;;;4117664;28;20427;-41
2022/06/13 01:45:39;;;;;;;;;;;22.30;45.70;;;;;;4121901;28;19933;-47
2022/06/13 01:47:46;;;;;;;;;;;22.50;45.70;;;;;;4117455;28;19933;-46
2022/06/13 01:50:17;;;;;;;;;;;22.80;45.60;;;;;;4098915;28;20440;-42
2022/06/13 01:52:19;;;;;;;;;;;23.00;45.30;;;;;;4103140;28;20566;-46
2022/06/13 01:54:31;;;;;;;;;;;23.30;45.60;;;;;;4122180;28;20578;-47
2022/06/13 01:56:40;;;;;;;;;;;23.50;44.80;;;;;;4121548;28;21548;-46
2022/06/13 01:58:56;;;;;;;;;;;23.70;44.50;;;;;;4120224;28;20920;-49
2022/06/13 02:01:15;;;;;;;;;;;23.90;44.30;;;;;;4130580;28;20070;-48
2022/06/13 02:03:19;;;;;;;;;;;24.10;43.80;;;;;;4103923;28;19940;-46
2022/06/13 02:05:42;;;;;;;;;;;24.20;43.40;;;;;;4111616;28;19929;-48
2022/06/13 02:07:47;;;;;;;;;;;24.40;43.60;;;;;;4109608;28;19929;-47
2022/06/13 02:09:54;;;;;;;;;;;24.40;43.50;;;;;;4114431;28;20187;-47
2022/06/13 02:11:56;;;;;;;;;;;24.20;43.70;;;;;;4109979;28;21698;-44
2022/06/13 02:14:09;;;;;;;;;;;23.80;44.50;;;;;;4105180;28;19986;-46
2022/06/13 02:16:18;;;;;;;;;;;23.50;44.90;;;;;;4105089;28;20350;-47
2022/06/13 02:18:27;;;;;;;;;;;23.20;45.40;;;;;;4103960;28;20137;-44
2022/06/13 02:20:34;;;;;;;;;;;22.90;45.70;;;;;;4107690;28;19925;-48
2022/06/13 02:22:36;;;;;;;;;;;22.60;45.90;;;;;;4107398;28;20442;-46
2022/06/13 02:24:41;;;;;;;;;;;22.40;46.60;;;;;;4111899;28;20375;-45
2022/06/13 02:26:45;;;;;;;;;;;22.20;47.00;;;;;;4104632;28;20396;-46
2022/06/13 02:28:55;;;;;;;;;;;22.10;47.40;;;;;;4102577;28;19929;-46
2022/06/13 02:31:02;;;;;;;;;;;22.00;47.40;;;;;;4101971;28;19925;-50
2022/06/13 02:33:07;;;;;;;;;;;21.80;47.30;;;;;;4104399;28;19975;-51
2022/06/13 02:35:17;;;;;;;;;;;21.60;47.20;;;;;;4117256;28;20824;-46
2022/06/13 02:37:22;;;;;;;;;;;21.50;47.10;;;;;;4110572;28;20344;-49
2022/06/13 02:39:43;;;;;;;;;;;21.40;47.10;;;;;;4102611;28;20557;-46
2022/06/13 02:41:49;;;;;;;;;;;21.30;47.10;;;;;;4097908;28;20339;-50
2022/06/13 02:44:06;;;;;;;;;;;21.20;47.20;;;;;;4107241;28;20015;-51
2022/06/13 02:46:16;;;;;;;;;;;21.10;47.20;;;;;;4113088;28;20718;-50
2022/06/13 02:48:52;;;;;;;;;;;21.00;47.40;;;;;;4110818;28;21365;-51
2022/06/13 02:51:03;;;;;;;;;;;20.90;47.40;;;;;;4070968;28;20396;-50
2022/06/13 02:53:15;;;;;;;;;;;20.80;47.60;;;;;;4092795;28;19992;-50
2022/06/13 02:55:18;;;;;;;;;;;20.70;47.60;;;;;;4105869;28;20274;-52
2022/06/13 02:57:34;;;;;;;;;;;20.60;47.60;;;;;;4106171;28;20442;-50
2022/06/13 02:59:43;;;;;;;;;;;20.60;48.00;;;;;;4106930;28;20149;-46
2022/06/13 03:01:48;;;;;;;;;;;20.50;48.10;;;;;;4106892;28;19925;-50
2022/06/13 03:03:57;;;;;;;;;;;20.40;48.20;;;;;;4114771;28;19960;-46
2022/06/13 03:06:07;;;;;;;;;;;20.30;48.40;;;;;;4114347;28;19935;-47
2022/06/13 03:08:27;;;;;;;;;;;20.30;48.40;;;;;;4112462;28;20382;-51
2022/06/13 03:10:34;;;;;;;;;;;20.20;48.60;;;;;;4113130;28;20068;-52
2022/06/13 03:12:45;;;;;;;;;;;20.10;48.60;;;;;;4118056;28;20411;-49
2022/06/13 03:14:49;;;;;;;;;;;20.10;48.70;;;;;;4117121;28;19952;-49
2022/06/13 03:17:05;;;;;;;;;;;20.10;48.80;;;;;;4112358;28;20454;-50
2022/06/13 03:19:25;;;;;;;;;;;20.00;48.80;;;;;;4116596;28;21017;-47
2022/06/13 03:21:28;;;;;;;;;;;20.00;48.90;;;;;;4117769;28;19925;-53
2022/06/13 03:23:36;;;;;;;;;;;19.90;48.90;;;;;;4112668;28;21863;-49
2022/06/13 03:26:05;;;;;;;;;;;19.90;49.00;;;;;;4109917;28;21478;-51
2022/06/13 03:28:13;;;;;;;;;;;19.80;49.00;;;;;;4109488;28;19925;-50
2022/06/13 03:30:18;;;;;;;;;;;19.80;49.00;;;;;;4116975;28;21213;-45
2022/06/13 03:32:22;;;;;;;;;;;19.80;49.10;;;;;;4113439;28;21056;-48
2022/06/13 03:34:29;;;;;;;;;;;19.70;49.70;;;;;;4102216;28;19931;-46
2022/06/13 03:36:37;;;;;;;;;;;19.70;49.10;;;;;;4098670;28;19928;-49
2022/06/13 03:38:45;;;;;;;;;;;19.70;49.20;;;;;;4103892;28;19929;-45
2022/06/13 03:40:50;;;;;;;;;;;19.70;49.20;;;;;;4110320;28;20025;-52
2022/06/13 03:42:55;;;;;;;;;;;19.70;49.30;;;;;;4116220;28;20006;-47
2022/06/13 03:45:00;;;;;;;;;;;19.70;49.30;;;;;;4116881;28;19929;-51
2022/06/13 03:47:06;;;;;;;;;;;19.70;49.40;;;;;;4113627;28;20292;-51
2022/06/13 03:49:29;;;;;;;;;;;19.60;49.40;;;;;;4111718;28;20006;-51
2022/06/13 03:51:35;;;;;;;;;;;19.60;49.40;;;;;;4117942;28;19929;-50
2022/06/13 03:53:39;;;;;;;;;;;19.60;49.40;;;;;;4112628;28;20396;-50
2022/06/13 03:55:47;;;;;;;;;;;19.60;49.40;;;;;;4116892;28;19929;-47
2022/06/13 03:57:52;;;;;;;;;;;19.60;49.50;;;;;;4122022;28;20007;-49
2022/06/13 04:00:02;;;;;;;;;;;19.60;49.60;;;;;;4122154;28;20297;-51
2022/06/13 04:02:12;;;;;;;;;;;19.60;49.50;;;;;;4118316;28;21198;-50
2022/06/13 04:04:19;;;;;;;;;;;19.60;49.50;;;;;;4114999;28;19933;-46
2022/06/13 04:06:32;;;;;;;;;;;19.60;49.50;;;;;;4114741;28;19936;-47
2022/06/13 04:08:36;;;;;;;;;;;19.60;49.40;;;;;;4114976;28;19948;-49
2022/06/13 04:11:03;;;;;;;;;;;19.60;49.50;;;;;;4115074;28;20648;-53
2022/06/13 04:13:23;;;;;;;;;;;19.50;49.50;;;;;;4112481;28;20015;-53
2022/06/13 04:15:31;;;;;;;;;;;19.50;49.60;;;;;;4118419;28;19929;-53
2022/06/13 04:17:51;;;;;;;;;;;19.50;49.90;;;;;;4122425;28;19944;-52
2022/06/13 04:20:11;;;;;;;;;;;19.40;49.90;;;;;;4117610;28;20035;-48
2022/06/13 04:22:27;;;;;;;;;;;19.40;50.00;;;;;;4115196;28;19997;-48
2022/06/13 04:24:31;;;;;;;;;;;19.30;50.10;;;;;;4115614;28;19929;-49
2022/06/13 04:26:43;;;;;;;;;;;19.30;50.10;;;;;;4115584;28;20612;-50
2022/06/13 04:28:47;;;;;;;;;;;19.30;50.10;;;;;;4116264;28;19925;-49
2022/06/13 04:30:50;;;;;;;;;;;19.40;50.10;;;;;;4122681;28;20442;-51
2022/06/13 04:32:52;;;;;;;;;;;19.40;50.20;;;;;;4111568;28;19992;-52
2022/06/13 04:34:54;;;;;;;;;;;19.40;50.20;;;;;;4107706;28;19929;-46
2022/06/13 04:36:56;;;;;;;;;;;19.50;50.10;;;;;;4111604;28;19925;-46
2022/06/13 04:38:59;;;;;;;;;;;19.50;50.10;;;;;;4113495;28;19928;-51
2022/06/13 04:41:03;;;;;;;;;;;19.60;50.00;;;;;;4108438;28;19939;-49
2022/06/13 04:43:07;;;;;;;;;;;19.60;50.00;;;;;;4104174;28;20038;-49
2022/06/13 04:45:28;;;;;;;;;;;19.60;49.90;;;;;;4112633;28;19990;-46
2022/06/13 04:47:30;;;;;;;;;;;19.70;50.00;;;;;;4105638;28;19929;-47
2022/06/13 04:49:36;;;;;;;;;;;19.70;50.00;;;;;;4112197;28;19929;-47
2022/06/13 04:51:40;;;;;;;;;;;19.70;49.90;;;;;;4109999;28;20773;-45
2022/06/13 04:53:51;;;;;;;;;;;19.80;50.00;;;;;;4105247;28;20027;-51
2022/06/13 04:55:54;;;;;;;;;;;19.80;49.90;;;;;;4106455;28;19937;-50
2022/06/13 04:57:56;;;;;;;;;;;19.80;49.90;;;;;;4104833;28;20394;-52
2022/06/13 04:59:57;;;;;;;;;;;19.90;49.90;;;;;;4113989;28;20031;-48
2022/06/13 05:02:01;;;;;;;;;;;19.90;49.90;;;;;;4106167;28;19929;-50
2022/06/13 05:04:04;;;;;;;;;;;20.00;50.30;;;;;;4106257;28;19929;-48
2022/06/13 05:06:14;;;;;;;;;;;20.00;50.10;;;;;;4113761;28;20364;-50
2022/06/13 05:08:24;;;;;;;;;;;20.00;50.40;;;;;;4111618;28;20412;-47
2022/06/13 05:10:28;;;;;;;;;;;20.00;50.30;;;;;;4113881;28;19936;-47
2022/06/13 05:12:40;;;;;;;;;;;20.00;50.10;;;;;;4128614;28;19917;-47
2022/06/13 05:15:18;;;;;;;;;;;20.00;50.30;;;;;;4133498;28;19971;-45
2022/06/13 05:17:37;;;;;;;;;;;20.00;50.40;;;;;;4155574;28;20016;-50
2022/06/13 05:19:51;;;;;;;;;;;20.00;50.20;;;;;;4116201;28;20052;-49
2022/06/13 05:22:02;;;;;;;;;;;20.00;50.20;;;;;;4112320;28;20861;-48
2022/06/13 05:24:33;;;;;;;;;;;20.00;50.20;;;;;;4109517;28;20053;-49
2022/06/13 05:26:35;;;;;;;;;;;20.00;50.30;;;;;;4105797;28;19921;-46
2022/06/13 05:28:37;;;;;;;;;;;20.00;50.30;;;;;;4117068;28;20322;-48
2022/06/13 05:30:46;;;;;;;;;;;19.90;50.40;;;;;;4106612;28;21303;-48
2022/06/13 05:32:48;;;;;;;;;;;19.90;50.30;;;;;;4106317;28;20104;-52
2022/06/13 05:34:50;;;;;;;;;;;19.90;50.30;;;;;;4104937;28;19979;-50
2022/06/13 05:36:51;;;;;;;;;;;19.90;50.00;;;;;;4114004;28;20034;-48
2022/06/13 05:39:05;;;;;;;;;;;19.80;50.20;;;;;;4105879;28;20456;-51
2022/06/13 05:41:07;;;;;;;;;;;19.80;50.30;;;;;;4106543;28;20861;-52
2022/06/13 05:43:10;;;;;;;;;;;19.80;50.40;;;;;;4104229;28;19944;-47
2022/06/13 05:45:17;;;;;;;;;;;19.70;50.40;;;;;;4111394;28;20724;-50
2022/06/13 05:47:19;;;;;;;;;;;19.70;50.60;;;;;;4113816;28;19994;-47
2022/06/13 05:49:21;;;;;;;;;;;19.60;50.60;;;;;;4106645;28;19937;-49
2022/06/13 05:51:23;;;;;;;;;;;19.60;50.70;;;;;;4103680;28;20335;-46
2022/06/13 05:53:26;;;;;;;;;;;19.60;50.80;;;;;;4111435;28;19936;-45
2022/06/13 05:55:28;;;;;;;;;;;19.60;50.90;;;;;;4105517;28;20878;-46
2022/06/13 05:57:29;;;;;;;;;;;19.50;50.90;;;;;;4105438;28;19925;-50
2022/06/13 05:59:31;;;;;;;;;;;19.50;50.90;;;;;;4111298;28;19935;-47
2022/06/13 06:01:35;;;;;;;;;;;19.40;51.00;;;;;;4109819;28;20102;-52
2022/06/13 06:03:37;;;;;;;;;;;19.40;51.10;;;;;;4104301;28;19931;-47
2022/06/13 06:05:39;;;;;;;;;;;19.40;51.10;;;;;;4106953;28;20231;-48
2022/06/13 06:07:41;;;;;;;;;;;19.40;51.20;;;;;;4114401;28;20618;-51
2022/06/13 06:09:43;;;;;;;;;;;19.30;51.20;;;;;;4105449;28;19925;-47
2022/06/13 06:11:45;;;;;;;;;;;19.30;51.20;;;;;;4107025;28;20339;-49
2022/06/13 06:13:47;;;;;;;;;;;19.30;51.20;;;;;;4112740;28;19937;-48
2022/06/13 06:15:49;;;;;;;;;;;19.30;51.30;;;;;;4106853;28;20303;-51
2022/06/13 06:17:51;;;;;;;;;;;19.30;51.30;;;;;;4103812;28;20561;-48
2022/06/13 06:19:53;;;;;;;;;;;19.20;51.30;;;;;;4113291;28;20454;-47
2022/06/13 06:21:55;;;;;;;;;;;19.20;51.40;;;;;;4107332;28;20547;-49
2022/06/13 06:23:56;;;;;;;;;;;19.20;51.40;;;;;;4105813;28;20510;-46
2022/06/13 06:25:58;;;;;;;;;;;19.20;51.40;;;;;;4092590;28;19929;-51
2022/06/13 06:28:00;;;;;;;;;;;19.20;51.40;;;;;;4109524;28;21452;-49
2022/06/13 06:30:03;;;;;;;;;;;19.20;51.50;;;;;;4103981;28;20291;-51
2022/06/13 06:32:05;;;;;;;;;;;19.40;51.20;;;;;;4109643;28;19925;-47
2022/06/13 06:34:06;;;;;;;;;;;19.70;50.30;;;;;;4115129;28;19939;-53
2022/06/13 06:36:10;;;;;;;;;;;19.70;49.90;;;;;;4107394;28;19925;-49
2022/06/13 06:38:12;;;;;;;;;;;19.60;49.80;;;;;;4105211;28;20570;-50
2022/06/13 06:40:15;;;;;;;;;;;19.50;50.10;;;;;;4114636;28;19925;-52
2022/06/13 06:42:16;;;;;;;;;;;19.40;50.40;;;;;;4108510;28;20275;-47
2022/06/13 06:44:18;;;;;;;;;;;19.30;50.60;;;;;;4108189;28;20293;-45
2022/06/13 06:46:19;;;;;;;;;;;19.20;50.90;;;;;;4116740;28;19929;-45
2022/06/13 06:48:22;;;;;;;;;;;19.10;51.00;;;;;;4112078;28;20349;-48
2022/06/13 06:50:27;;;;;;;;;;;19.00;51.20;;;;;;4110746;28;20391;-49
2022/06/13 06:52:29;;;;;;;;;;;19.00;51.40;;;;;;4111279;28;20312;-46
2022/06/13 07:01:30;;;;;;;;;;;18.80;51.90;;;;;;4111752;28;20024;-51
2022/06/13 07:03:32;;;;;;;;;;;18.70;52.00;;;;;;4108907;28;19943;-50
2022/06/13 07:05:33;;;;;;;;;;;18.70;52.10;;;;;;4115812;28;19933;-44
2022/06/13 07:07:35;;;;;;;;;;;18.70;52.20;;;;;;4109737;28;19930;-48
2022/06/13 07:09:37;;;;;;;;;;;18.70;52.20;;;;;;4110451;28;19964;-47
2022/06/13 07:11:54;;;;;;;;;;;18.60;52.20;;;;;;4118605;28;19929;-48
2022/06/13 07:13:56;;;;;;;;;;;18.60;52.30;;;;;;4109445;28;19933;-48
2022/06/13 07:15:57;;;;;;;;;;;18.60;52.40;;;;;;4115989;28;20421;-47
2022/06/13 07:17:59;;;;;;;;;;;18.50;52.40;;;;;;4107369;28;19929;-47
2022/06/13 07:20:00;;;;;;;;;;;18.50;52.50;;;;;;4110156;28;19936;-50
2022/06/13 07:22:02;;;;;;;;;;;18.50;52.60;;;;;;4115700;28;19925;-46
2022/06/13 07:24:04;;;;;;;;;;;18.40;52.60;;;;;;4108638;28;19975;-47
2022/06/13 07:26:06;;;;;;;;;;;18.40;52.60;;;;;;4107467;28;21113;-50
2022/06/13 07:28:08;;;;;;;;;;;18.40;52.80;;;;;;4116358;28;20003;-47
2022/06/13 07:30:10;;;;;;;;;;;18.40;52.70;;;;;;4107808;28;19929;-49
2022/06/13 07:32:15;;;;;;;;;;;18.40;52.90;;;;;;4110074;28;20012;-46
2022/06/13 07:34:19;;;;;;;;;;;18.40;52.90;;;;;;4112802;28;19936;-47
2022/06/13 07:36:21;;;;;;;;;;;18.40;52.90;;;;;;4117575;28;19921;-47
2022/06/13 07:38:22;;;;;;;;;;;18.30;52.90;;;;;;4107697;28;20431;-47
2022/06/13 07:40:25;;;;;;;;;;;18.30;53.00;;;;;;4110820;28;20000;-50
2022/06/13 07:42:27;;;;;;;;;;;18.30;52.90;;;;;;4119738;28;20400;-51
2022/06/13 07:44:33;;;;;;;;;;;18.20;53.00;;;;;;4110175;28;19929;-48
2022/06/13 07:46:35;;;;;;;;;;;18.20;53.00;;;;;;4109470;28;19929;-49
2022/06/13 07:48:37;;;;;;;;;;;18.20;53.00;;;;;;4113060;28;19929;-50
2022/06/13 07:50:40;;;;;;;;;;;18.20;53.10;;;;;;4117388;28;20383;-51
2022/06/13 07:52:41;;;;;;;;;;;18.20;53.10;;;;;;4107502;28;19929;-49
2022/06/13 07:54:43;;;;;;;;;;;18.20;53.20;;;;;;4107473;28;20358;-46
2022/06/13 07:56:45;;;;;;;;;;;18.10;53.80;;;;;;4116035;28;19929;-49
2022/06/13 07:58:48;;;;;;;;;;;18.10;53.20;;;;;;4107267;28;19936;-50
2022/06/13 08:00:50;;;;;;;;;;;18.10;53.20;;;;;;4107522;28;19933;-50
2022/06/13 08:02:52;;;;;;;;;;;18.10;53.30;;;;;;4116964;28;19929;-49
2022/06/13 08:04:56;;;;;;;;;;;18.10;53.30;;;;;;4107281;28;20549;-47
2022/06/13 08:06:58;;;;;;;;;;;18.10;53.40;;;;;;4106250;28;20525;-49
2022/06/13 08:08:59;;;;;;;;;;;18.00;53.40;;;;;;4113220;28;19929;-51
2022/06/13 08:11:03;;;;;;;;;;;18.00;53.40;;;;;;4115299;28;21151;-47
2022/06/13 08:13:05;;;;;;;;;;;18.00;53.50;;;;;;4109097;28;20015;-47
2022/06/13 08:15:07;;;;;;;;;;;18.00;53.50;;;;;;4103011;28;20002;-46
2022/06/13 08:17:08;;;;;;;;;;;17.90;53.40;;;;;;4110238;28;19935;-46
2022/06/13 08:19:10;;;;;;;;;;;17.90;53.50;;;;;;4104917;28;19929;-46
2022/06/13 08:21:12;;;;;;;;;;;17.90;53.50;;;;;;4101041;28;19925;-50
2022/06/13 08:23:15;;;;;;;;;;;17.90;53.80;;;;;;4113613;28;19929;-46
2022/06/13 08:25:21;;;;;;;;;;;17.90;53.60;;;;;;4107032;28;19929;-49
2022/06/13 08:27:22;;;;;;;;;;;17.90;53.60;;;;;;4102238;28;19929;-51
2022/06/13 08:29:24;;;;;;;;;;;17.90;53.70;;;;;;4105738;28;20287;-51
2022/06/13 08:31:26;;;;;;;;;;;17.90;53.70;;;;;;4114224;28;20478;-50
2022/06/13 08:33:27;;;;;;;;;;;17.80;53.70;;;;;;4104888;28;19924;-49
2022/06/13 08:35:29;;;;;;;;;;;17.80;53.70;;;;;;4101703;28;19930;-47
2022/06/13 08:37:31;;;;;;;;;;;17.80;53.80;;;;;;4115233;28;20707;-51
2022/06/13 08:39:32;;;;;;;;;;;17.80;53.80;;;;;;4100377;28;20424;-49
2022/06/13 08:41:46;;;;;;;;;;;17.80;53.80;;;;;;4105943;28;20216;-50
2022/06/13 08:43:53;;;;;;;;;;;17.80;53.80;;;;;;4102472;28;19929;-49
2022/06/13 08:46:00;;;;;;;;;;;17.80;53.80;;;;;;4102785;28;19996;-46
2022/06/13 08:48:07;;;;;;;;;;;17.70;53.80;;;;;;4112061;28;19933;-49
2022/06/13 08:50:21;;;;;;;;;;;17.70;53.70;;;;;;4112288;28;19937;-48
2022/06/13 08:52:27;;;;;;;;;;;17.70;53.70;;;;;;4109325;28;19932;-48
2022/06/13 08:54:32;;;;;;;;;;;17.70;53.80;;;;;;4105362;28;19975;-45
2022/06/13 08:56:35;;;;;;;;;;;17.60;53.70;;;;;;4103988;28;20092;-48
2022/06/13 08:58:42;;;;;;;;;;;17.60;53.80;;;;;;4103457;28;20169;-47
2022/06/13 09:01:10;;;;;;;;;;;17.60;53.80;;;;;;4107773;28;19929;-48
2022/06/13 09:03:15;;;;;;;;;;;17.60;53.90;;;;;;4068182;28;20390;-49
2022/06/13 09:05:27;;;;;;;;;;;17.60;53.90;;;;;;4105492;28;19979;-49
2022/06/13 09:07:34;;;;;;;;;;;17.60;53.90;;;;;;4104053;28;19960;-51
2022/06/13 09:09:46;;;;;;;;;;;17.50;53.80;;;;;;4102212;28;20563;-46
2022/06/13 09:11:51;;;;;;;;;;;17.50;53.90;;;;;;4107120;28;19932;-51
2022/06/13 09:13:59;;;;;;;;;;;17.50;54.00;;;;;;4111454;28;20123;-48
2022/06/13 09:16:03;;;;;;;;;;;17.50;53.90;;;;;;4108015;28;20468;-50
2022/06/13 09:18:08;;;;;;;;;;;17.50;54.00;;;;;;4100545;28;19925;-50
2022/06/13 09:20:35;;;;;;;;;;;17.50;53.90;;;;;;4098167;28;20368;-47
2022/06/13 09:22:41;;;;;;;;;;;17.50;54.00;;;;;;4107299;28;20723;-46
2022/06/13 09:25:01;;;;;;;;;;;17.40;53.90;;;;;;4096236;28;20359;-48
2022/06/13 09:27:20;;;;;;;;;;;17.40;54.00;;;;;;4109281;28;20014;-47
2022/06/13 09:29:26;;;;;;;;;;;17.40;54.00;;;;;;4108340;28;19936;-50
2022/06/13 09:31:34;;;;;;;;;;;17.40;54.10;;;;;;4110864;28;19935;-45
2022/06/13 09:33:40;;;;;;;;;;;17.40;54.10;;;;;;4104574;28;20586;-47
2022/06/13 09:35:44;;;;;;;;;;;17.40;54.20;;;;;;4104862;28;19929;-47
2022/06/13 09:37:55;;;;;;;;;;;17.30;54.10;;;;;;4103126;28;20067;-45
2022/06/13 09:39:57;;;;;;;;;;;17.30;54.10;;;;;;4104965;28;19929;-45
2022/06/13 09:42:08;;;;;;;;;;;17.30;54.10;;;;;;4112524;28;20406;-47
2022/06/13 09:44:22;;;;;;;;;;;17.30;54.10;;;;;;4113293;28;20375;-45
2022/06/13 09:46:26;;;;;;;;;;;17.30;54.30;;;;;;4112495;28;19925;-50
2022/06/13 09:48:34;;;;;;;;;;;17.30;54.20;;;;;;4112078;28;20490;-50
2022/06/13 09:50:53;;;;;;;;;;;17.30;54.30;;;;;;4105896;28;19963;-47
2022/06/13 09:52:58;;;;;;;;;;;17.20;54.20;;;;;;4108674;28;20761;-48
2022/06/13 09:54:59;;;;;;;;;;;17.20;54.20;;;;;;4105013;28;20610;-49
2022/06/13 09:57:01;;;;;;;;;;;17.20;54.20;;;;;;4108539;28;20988;-45
2022/06/13 09:59:32;;;;;;;;;;;17.20;54.30;;;;;;4118993;28;19931;-45
2022/06/13 10:01:52;;;;;;;;;;;17.20;54.30;;;;;;4091930;28;20384;-45
2022/06/13 10:04:04;;;;;;;;;;;17.10;54.20;;;;;;4117100;28;20549;-47
2022/06/13 10:06:06;;;;;;;;;;;17.10;54.30;;;;;;4118362;28;21088;-48
2022/06/13 10:08:16;;;;;;;;;;;17.10;54.30;;;;;;4119744;28;19929;-45
2022/06/13 10:10:30;;;;;;;;;;;17.10;54.30;;;;;;4120480;28;19979;-44
2022/06/13 10:12:51;;;;;;;;;;;17.10;54.30;;;;;;4117496;28;19921;-46
2022/06/13 10:14:55;;;;;;;;;;;17.10;54.30;;;;;;4112290;28;20812;-46
2022/06/13 10:17:12;;;;;;;;;;;17.00;54.40;;;;;;4108501;28;19924;-47
2022/06/13 10:19:23;;;;;;;;;;;17.00;54.30;;;;;;4109494;28;20667;-47
2022/06/13 10:21:33;;;;;;;;;;;17.10;54.30;;;;;;4114556;28;19956;-49
2022/06/13 10:23:53;;;;;;;;;;;17.00;55.00;;;;;;4115521;28;19947;-52
2022/06/13 10:26:10;;;;;;;;;;;17.00;54.30;;;;;;4120518;28;20581;-48
2022/06/13 10:28:26;;;;;;;;;;;17.00;54.30;;;;;;4118617;28;19995;-45
2022/06/13 10:30:33;;;;;;;;;;;17.00;54.40;;;;;;4121196;28;20084;-49
2022/06/13 10:32:35;;;;;;;;;;;16.90;54.40;;;;;;4121372;28;19955;-46
2022/06/13 10:34:43;;;;;;;;;;;16.90;54.30;;;;;;4115696;28;20304;-49
2022/06/13 10:37:10;;;;;;;;;;;16.90;54.40;;;;;;4113875;28;19991;-46
2022/06/13 10:39:17;;;;;;;;;;;16.90;54.40;;;;;;4122750;28;20487;-49
2022/06/13 10:41:19;;;;;;;;;;;16.90;54.40;;;;;;4118088;28;20014;-45
2022/06/13 10:43:21;;;;;;;;;;;16.90;54.40;;;;;;4114380;28;19936;-47
2022/06/13 10:45:23;;;;;;;;;;;16.80;54.50;;;;;;4118371;28;20019;-47
2022/06/13 10:47:27;;;;;;;;;;;16.80;54.40;;;;;;4120988;28;20496;-50
2022/06/13 10:49:35;;;;;;;;;;;16.80;54.50;;;;;;4113259;28;20336;-45
2022/06/13 10:51:37;;;;;;;;;;;16.80;54.50;;;;;;4113835;28;19960;-50
2022/06/13 10:53:45;;;;;;;;;;;16.80;54.40;;;;;;4117609;28;20406;-47
2022/06/13 10:55:47;;;;;;;;;;;16.80;54.50;;;;;;4122211;28;20447;-47
2022/06/13 10:57:57;;;;;;;;;;;16.80;54.50;;;;;;4113357;28;21322;-49
2022/06/13 11:00:17;;;;;;;;;;;16.70;54.40;;;;;;4113835;28;21115;-47
2022/06/13 11:02:27;;;;;;;;;;;16.70;54.50;;;;;;4120941;28;20798;-45
2022/06/13 11:04:38;;;;;;;;;;;16.70;54.50;;;;;;4120166;28;20062;-48
2022/06/13 11:06:45;;;;;;;;;;;16.70;54.50;;;;;;4118724;28;20315;-51
2022/06/13 11:08:47;;;;;;;;;;;16.70;54.60;;;;;;4113775;28;20004;-48
2022/06/13 11:10:53;;;;;;;;;;;16.70;54.60;;;;;;4115362;28;19929;-45
2022/06/13 11:12:55;;;;;;;;;;;16.70;54.60;;;;;;4117504;28;20600;-45
2022/06/13 11:22:37;;;;;;;;;;;16.70;54.70;;;;;;4118281;28;20067;-51
2022/06/13 11:22:37;;;;;;;;;;;16.60;54.70;;;;;;4113544;28;20071;-50
2022/06/13 11:24:44;;;;;;;;;;;16.60;54.70;;;;;;4121696;28;20023;-48
2022/06/13 11:29:13;;;;;;;;;;;16.60;54.70;;;;;;4114612;28;19964;-50
2022/06/13 11:31:18;;;;;;;;;;;16.50;54.70;;;;;;4113069;28;19964;-48
2022/06/13 11:33:20;;;;;;;;;;;16.50;54.70;;;;;;4111011;28;20008;-50
2022/06/13 11:35:32;;;;;;;;;;;16.50;54.70;;;;;;4118406;28;19925;-49
2022/06/13 11:37:34;;;;;;;;;;;16.50;54.70;;;;;;4118634;28;20652;-50
2022/06/13 11:39:38;;;;;;;;;;;16.40;54.80;;;;;;4110450;28;19931;-45
2022/06/13 11:41:40;;;;;;;;;;;16.50;54.80;;;;;;4109970;28;20386;-48
2022/06/13 11:43:44;;;;;;;;;;;16.40;54.80;;;;;;4119661;28;20335;-51
2022/06/13 11:45:53;;;;;;;;;;;16.40;54.80;;;;;;4114273;28;20931;-51
2022/06/13 11:47:54;;;;;;;;;;;16.40;54.80;;;;;;4111246;28;20432;-46
2022/06/13 11:49:57;;;;;;;;;;;16.40;54.80;;;;;;4112407;28;19925;-50
2022/06/13 11:52:05;;;;;;;;;;;16.40;54.80;;;;;;4119124;28;19929;-48
2022/06/13 11:54:17;;;;;;;;;;;16.40;54.80;;;;;;4119089;28;19929;-46
2022/06/13 11:56:37;;;;;;;;;;;16.40;54.80;;;;;;4117846;28;19959;-50
2022/06/13 11:58:46;;;;;;;;;;;16.40;54.80;;;;;;4114298;28;20475;-50
2022/06/13 12:00:51;;;;;;;;;;;16.30;54.90;;;;;;4117021;28;19935;-50
2022/06/13 12:02:55;;;;;;;;;;;16.30;54.80;;;;;;4116067;28;20528;-51
2022/06/13 12:04:57;;;;;;;;;;;16.30;54.80;;;;;;4110489;28;20006;-47
2022/06/13 12:07:00;;;;;;;;;;;16.30;54.80;;;;;;4109943;28;19929;-48
2022/06/13 12:09:23;;;;;;;;;;;16.30;54.80;;;;;;4118089;28;19925;-45
2022/06/13 12:11:27;;;;;;;;;;;16.30;54.90;;;;;;4109428;28;20523;-55
2022/06/13 12:13:31;;;;;;;;;;;16.30;55.40;;;;;;4114491;28;19925;-50
2022/06/13 12:15:37;;;;;;;;;;;16.30;55.40;;;;;;4100192;28;19961;-52
2022/06/13 12:17:41;;;;;;;;;;;16.30;55.30;;;;;;4110962;28;19929;-52
2022/06/13 12:19:49;;;;;;;;;;;16.30;55.20;;;;;;4110266;28;20007;-50
2022/06/13 12:22:08;;;;;;;;;;;16.30;55.20;;;;;;4110055;28;19994;-52
2022/06/13 12:24:19;;;;;;;;;;;16.20;55.10;;;;;;4107761;28;19929;-44
2022/06/13 12:26:28;;;;;;;;;;;16.20;55.80;;;;;;4110048;28;19933;-46
2022/06/13 12:28:37;;;;;;;;;;;16.20;56.40;;;;;;4107313;28;20033;-47
2022/06/13 12:30:56;;;;;;;;;;;16.20;56.10;;;;;;4106400;28;19925;-47
2022/06/13 12:33:10;;;;;;;;;;;16.20;56.30;;;;;;4108607;28;20031;-47
2022/06/13 12:35:21;;;;;;;;;;;16.20;56.40;;;;;;4107533;28;20018;-47
2022/06/13 12:37:37;;;;;;;;;;;16.30;56.50;;;;;;4106785;28;20068;-47
2022/06/13 12:39:38;;;;;;;;;;;16.20;56.60;;;;;;4106463;28;20712;-46